createdAt,value
2017-07-11T00:00:22.392Z,0
2017-07-11T00:01:24.450Z,0
2017-07-11T00:02:26.504Z,0
2017-07-11T00:03:28.561Z,0
2017-07-11T00:04:30.616Z,0
2017-07-11T00:05:32.665Z,0
2017-07-11T00:06:34.726Z,0
2017-07-11T00:07:36.782Z,0
2017-07-11T00:08:38.843Z,0
2017-07-11T00:09:40.902Z,0
2017-07-11T00:10:42.955Z,0
2017-07-11T00:11:45.009Z,0
2017-07-11T00:12:47.070Z,0
2017-07-11T00:13:49.121Z,0
2017-07-11T00:14:51.184Z,0
2017-07-11T00:15:53.256Z,0
2017-07-11T00:16:55.307Z,0
2017-07-11T00:17:57.360Z,0
2017-07-11T00:18:59.760Z,0
2017-07-11T00:20:02.154Z,0
2017-07-11T00:21:04.214Z,0
2017-07-11T00:22:06.278Z,0
2017-07-11T00:23:08.328Z,0
2017-07-11T00:24:10.385Z,0
2017-07-11T00:25:12.436Z,0
2017-07-11T00:26:14.488Z,0
2017-07-11T00:27:16.544Z,0
2017-07-11T00:28:18.601Z,0
2017-07-11T00:29:20.663Z,0
2017-07-11T00:30:22.720Z,0
2017-07-11T00:31:24.764Z,0
2017-07-11T00:32:26.821Z,0
2017-07-11T00:33:28.881Z,0
2017-07-11T00:34:30.934Z,0
2017-07-11T00:35:32.987Z,0
2017-07-11T00:36:35.055Z,0
2017-07-11T00:37:37.111Z,0
2017-07-11T00:38:39.158Z,0
2017-07-11T00:39:41.219Z,0
2017-07-11T00:40:43.275Z,0
2017-07-11T00:41:45.330Z,0
2017-07-11T00:42:47.386Z,0
2017-07-11T00:43:49.437Z,0
2017-07-11T00:44:51.490Z,0
2017-07-11T00:45:53.538Z,0
2017-07-11T00:46:55.598Z,0
2017-07-11T00:47:57.659Z,0
2017-07-11T00:48:59.718Z,0
2017-07-11T00:50:01.769Z,0
2017-07-11T00:51:03.821Z,0
2017-07-11T00:52:05.881Z,0
2017-07-11T00:53:07.942Z,0
2017-07-11T00:54:09.996Z,0
2017-07-11T00:55:12.051Z,0
2017-07-11T00:56:14.103Z,0
2017-07-11T00:57:16.170Z,0
2017-07-11T00:58:18.566Z,0
2017-07-11T00:59:20.623Z,0
2017-07-11T01:00:22.681Z,0
2017-07-11T01:01:24.736Z,0
2017-07-11T01:02:26.787Z,0
2017-07-11T01:03:28.851Z,0
2017-07-11T01:04:30.906Z,0
2017-07-11T01:05:32.965Z,0
2017-07-11T01:06:35.016Z,0
2017-07-11T01:07:37.078Z,0
2017-07-11T01:08:39.135Z,0
2017-07-11T01:09:41.193Z,0
2017-07-11T01:10:43.242Z,0
2017-07-11T01:11:45.300Z,0
2017-07-11T01:12:47.697Z,0
2017-07-11T01:13:49.749Z,0
2017-07-11T01:14:51.800Z,0
2017-07-11T01:15:53.857Z,0
2017-07-11T01:16:55.920Z,0
2017-07-11T01:17:57.980Z,0
2017-07-11T01:19:00.369Z,0
2017-07-11T01:20:02.428Z,0
2017-07-11T01:21:04.486Z,0
2017-07-11T01:22:06.542Z,0
2017-07-11T01:23:08.601Z,0
2017-07-11T01:24:10.658Z,0
2017-07-11T01:25:12.718Z,0
2017-07-11T01:26:14.766Z,0
2017-07-11T01:27:16.819Z,0
2017-07-11T01:28:18.880Z,0
2017-07-11T01:29:20.942Z,0
2017-07-11T01:30:22.990Z,0
2017-07-11T01:31:25.044Z,0
2017-07-11T01:32:27.099Z,0
2017-07-11T01:33:29.154Z,0
2017-07-11T01:34:31.214Z,0
2017-07-11T01:35:33.266Z,0
2017-07-11T01:36:35.320Z,0
2017-07-11T01:37:37.726Z,0
2017-07-11T01:38:39.779Z,0
2017-07-11T01:39:41.834Z,0
2017-07-11T01:40:43.889Z,0
2017-07-11T01:41:45.940Z,0
2017-07-11T01:42:47.992Z,0
2017-07-11T01:43:50.047Z,0
2017-07-11T01:44:52.106Z,0
2017-07-11T01:45:54.164Z,0
2017-07-11T01:46:56.216Z,0
2017-07-11T01:47:58.273Z,0
2017-07-11T01:49:00.327Z,0
2017-07-11T01:50:02.372Z,0
2017-07-11T01:51:04.423Z,0
2017-07-11T01:52:06.493Z,0
2017-07-11T01:53:08.891Z,0
2017-07-11T01:54:10.952Z,0
2017-07-11T01:55:13.011Z,0
2017-07-11T01:56:15.063Z,0
2017-07-11T01:57:17.119Z,0
2017-07-11T01:58:19.169Z,0
2017-07-11T01:59:21.235Z,0
2017-07-11T02:00:23.294Z,0
2017-07-11T02:01:25.345Z,0
2017-07-11T02:02:27.399Z,0
2017-07-11T02:03:29.453Z,0
2017-07-11T02:04:31.504Z,0
2017-07-11T02:05:33.565Z,0
2017-07-11T02:06:35.616Z,0
2017-07-11T02:07:37.667Z,0
2017-07-11T02:08:40.070Z,0
2017-07-11T02:09:42.128Z,0
2017-07-11T02:10:44.174Z,0
2017-07-11T02:11:46.234Z,0
2017-07-11T02:12:48.290Z,0
2017-07-11T02:13:50.344Z,0
2017-07-11T02:14:52.399Z,0
2017-07-11T02:15:54.449Z,4
2017-07-11T02:16:56.511Z,4
2017-07-11T02:17:58.553Z,4
2017-07-11T02:19:00.608Z,4
2017-07-11T02:20:02.668Z,0
2017-07-11T02:21:04.719Z,4
2017-07-11T02:22:06.772Z,4
2017-07-11T02:23:08.834Z,4
2017-07-11T02:24:10.892Z,4
2017-07-11T02:25:12.948Z,8
2017-07-11T02:26:14.998Z,4
2017-07-11T02:27:17.055Z,8
2017-07-11T02:28:19.112Z,12
2017-07-11T02:29:21.163Z,8
2017-07-11T02:30:23.220Z,12
2017-07-11T02:31:25.273Z,16
2017-07-11T02:32:27.339Z,12
2017-07-11T02:33:29.390Z,16
2017-07-11T02:34:31.449Z,16
2017-07-11T02:35:33.506Z,20
2017-07-11T02:36:35.560Z,24
2017-07-11T02:37:37.616Z,28
2017-07-11T02:38:39.668Z,28
2017-07-11T02:39:41.731Z,36
2017-07-11T02:40:43.786Z,40
2017-07-11T02:41:45.839Z,44
2017-07-11T02:42:47.900Z,56
2017-07-11T02:43:50.307Z,60
2017-07-11T02:44:52.362Z,64
2017-07-11T02:45:54.422Z,64
2017-07-11T02:46:56.469Z,72
2017-07-11T02:47:58.527Z,76
2017-07-11T02:49:00.583Z,84
2017-07-11T02:50:02.628Z,92
2017-07-11T02:51:04.697Z,96
2017-07-11T02:52:06.757Z,104
2017-07-11T02:53:09.501Z,108
2017-07-11T02:54:11.558Z,116
2017-07-11T02:55:13.616Z,120
2017-07-11T02:56:15.677Z,132
2017-07-11T02:57:17.729Z,144
2017-07-11T02:58:19.787Z,152
2017-07-11T02:59:22.193Z,152
2017-07-11T03:00:24.244Z,156
2017-07-11T03:01:26.302Z,160
2017-07-11T03:02:28.362Z,164
2017-07-11T03:03:30.418Z,176
2017-07-11T03:04:32.472Z,192
2017-07-11T03:05:34.539Z,216
2017-07-11T03:06:36.595Z,232
2017-07-11T03:07:38.656Z,252
2017-07-11T03:08:40.712Z,276
2017-07-11T03:09:42.774Z,300
2017-07-11T03:10:44.827Z,328
2017-07-11T03:11:47.230Z,356
2017-07-11T03:12:49.282Z,388
2017-07-11T03:13:51.354Z,424
2017-07-11T03:14:53.410Z,468
2017-07-11T03:15:55.472Z,492
2017-07-11T03:16:57.523Z,512
2017-07-11T03:17:59.576Z,536
2017-07-11T03:19:01.633Z,548
2017-07-11T03:20:03.690Z,572
2017-07-11T03:21:05.799Z,596
2017-07-11T03:22:07.811Z,632
2017-07-11T03:23:09.864Z,668
2017-07-11T03:24:11.922Z,680
2017-07-11T03:25:13.976Z,700
2017-07-11T03:26:16.036Z,744
2017-07-11T03:27:18.090Z,772
2017-07-11T03:28:20.143Z,776
2017-07-11T03:29:22.203Z,832
2017-07-11T03:30:24.259Z,916
2017-07-11T03:31:26.325Z,944
2017-07-11T03:32:28.378Z,932
2017-07-11T03:33:30.432Z,980
2017-07-11T03:34:32.491Z,1104
2017-07-11T03:35:34.550Z,1184
2017-07-11T03:36:36.602Z,1232
2017-07-11T03:37:38.666Z,1300
2017-07-11T03:38:40.733Z,1396
2017-07-11T03:39:42.786Z,1524
2017-07-11T03:40:44.834Z,1712
2017-07-11T03:41:46.899Z,1788
2017-07-11T03:42:48.956Z,1908
2017-07-11T03:43:51.019Z,1920
2017-07-11T03:44:53.412Z,1896
2017-07-11T03:45:55.475Z,1940
2017-07-11T03:46:57.533Z,2020
2017-07-11T03:47:59.582Z,2072
2017-07-11T03:49:01.646Z,2108
2017-07-11T03:50:03.709Z,2148
2017-07-11T03:51:05.766Z,2248
2017-07-11T03:52:07.821Z,2248
2017-07-11T03:53:09.876Z,2216
2017-07-11T03:54:11.938Z,2140
2017-07-11T03:55:13.984Z,2224
2017-07-11T03:56:16.038Z,2332
2017-07-11T03:57:18.103Z,2116
2017-07-11T03:58:20.157Z,2084
2017-07-11T03:59:22.561Z,2108
2017-07-11T04:00:24.620Z,2140
2017-07-11T04:01:26.680Z,2168
2017-07-11T04:02:28.732Z,2120
2017-07-11T04:03:30.790Z,2072
2017-07-11T04:04:32.839Z,2156
2017-07-11T04:05:34.894Z,2116
2017-07-11T04:06:36.957Z,2112
2017-07-11T04:07:39.014Z,1904
2017-07-11T04:08:41.068Z,1860
2017-07-11T04:09:43.178Z,1856
2017-07-11T04:10:45.529Z,1904
2017-07-11T04:11:47.584Z,2048
2017-07-11T04:12:49.640Z,2212
2017-07-11T04:13:51.705Z,2252
2017-07-11T04:14:53.768Z,2348
2017-07-11T04:15:55.823Z,2496
2017-07-11T04:16:57.882Z,2592
2017-07-11T04:17:59.941Z,2644
2017-07-11T04:19:02.004Z,2644
2017-07-11T04:20:04.057Z,2832
2017-07-11T04:21:06.124Z,2900
2017-07-11T04:22:08.174Z,2984
2017-07-11T04:23:10.228Z,2980
2017-07-11T04:24:12.283Z,2976
2017-07-11T04:25:14.346Z,3160
2017-07-11T04:26:16.407Z,3204
2017-07-11T04:27:18.461Z,3192
2017-07-11T04:28:20.525Z,3232
2017-07-11T04:29:22.586Z,3348
2017-07-11T04:30:24.636Z,3412
2017-07-11T04:31:27.063Z,3532
2017-07-11T04:32:29.124Z,3500
2017-07-11T04:33:31.178Z,3456
2017-07-11T04:34:33.237Z,3484
2017-07-11T04:35:35.285Z,3636
2017-07-11T04:36:37.343Z,3880
2017-07-11T04:37:39.400Z,3820
2017-07-11T04:38:41.474Z,3640
2017-07-11T04:39:43.518Z,3736
2017-07-11T04:40:45.577Z,4036
2017-07-11T04:41:48.283Z,4132
2017-07-11T04:42:50.335Z,4152
2017-07-11T04:43:52.394Z,4100
2017-07-11T04:44:54.454Z,4144
2017-07-11T04:45:56.503Z,4340
2017-07-11T04:46:58.571Z,4256
2017-07-11T04:48:00.615Z,3964
2017-07-11T04:51:02.473Z,4288
2017-07-11T04:52:04.493Z,4188
2017-07-11T04:53:06.507Z,4268
2017-07-11T04:54:08.529Z,4096
2017-07-11T04:55:10.561Z,4268
2017-07-11T04:56:12.941Z,4264
2017-07-11T04:57:15.308Z,4128
2017-07-11T04:58:17.333Z,4324
2017-07-11T04:59:19.350Z,4428
2017-07-11T05:00:21.369Z,4544
2017-07-11T05:01:23.397Z,4512
2017-07-11T05:02:25.416Z,4704
2017-07-11T05:03:27.440Z,4824
2017-07-11T05:04:29.455Z,4516
2017-07-11T05:05:31.478Z,4616
2017-07-11T05:06:33.500Z,5152
2017-07-11T05:07:35.516Z,5492
2017-07-11T05:08:37.537Z,5976
2017-07-11T05:09:39.567Z,6604
2017-07-11T05:10:41.585Z,6820
2017-07-11T05:11:43.596Z,6804
2017-07-11T05:12:45.612Z,6628
2017-07-11T05:13:47.639Z,6448
2017-07-11T05:14:49.661Z,6792
2017-07-11T05:15:51.670Z,6084
2017-07-11T05:16:53.688Z,6376
2017-07-11T05:17:55.715Z,6116
2017-07-11T05:18:57.745Z,5996
2017-07-11T05:19:59.771Z,6192
2017-07-11T05:21:01.796Z,6344
2017-07-11T05:22:03.820Z,6584
2017-07-11T05:23:05.838Z,6796
2017-07-11T05:24:07.858Z,6644
2017-07-11T05:25:09.875Z,6124
2017-07-11T05:26:11.893Z,6144
2017-07-11T05:27:13.913Z,6540
2017-07-11T05:28:15.933Z,6584
2017-07-11T05:29:18.284Z,6172
2017-07-11T05:30:20.289Z,5768
2017-07-11T05:31:22.306Z,5672
2017-07-11T05:32:24.332Z,5740
2017-07-11T05:33:26.687Z,6688
2017-07-11T05:34:28.701Z,7324
2017-07-11T05:35:30.720Z,7924
2017-07-11T05:36:32.741Z,7644
2017-07-11T05:37:35.101Z,7484
2017-07-11T05:38:37.119Z,8540
2017-07-11T05:39:39.145Z,8428
2017-07-11T05:40:41.165Z,8196
2017-07-11T05:41:43.181Z,8936
2017-07-11T05:42:45.648Z,10604
2017-07-11T05:43:52.639Z,9360
2017-07-11T05:44:59.651Z,9908
2017-07-11T05:46:03.244Z,10448
2017-07-11T05:47:07.301Z,10004
2017-07-11T05:48:14.932Z,10296
2017-07-11T05:49:21.810Z,11028
2017-07-11T05:50:31.467Z,12052
2017-07-11T05:51:40.816Z,13012
2017-07-11T05:52:48.127Z,12400
2017-07-11T05:53:55.453Z,12568
2017-07-11T05:55:03.455Z,12860
2017-07-11T05:56:10.086Z,13572
2017-07-11T05:57:17.946Z,12820
2017-07-11T05:58:28.128Z,10936
2017-07-11T05:59:34.600Z,11712
2017-07-11T06:00:44.048Z,13484
2017-07-11T06:01:51.321Z,14604
2017-07-11T06:02:59.097Z,18432
2017-07-11T06:04:07.591Z,19008
2017-07-11T06:05:14.863Z,20320
2017-07-11T06:06:23.174Z,22816
2017-07-11T06:07:31.915Z,23520
2017-07-11T06:08:38.570Z,26048
2017-07-11T06:09:44.798Z,23808
2017-07-11T06:10:53.603Z,22432
2017-07-11T06:12:02.917Z,18752
2017-07-11T06:13:09.292Z,14996
2017-07-11T06:14:15.644Z,16528
2017-07-11T06:15:24.063Z,15108
2017-07-11T06:16:32.085Z,15068
2017-07-11T06:17:40.473Z,20160
2017-07-11T06:18:47.356Z,21056
2017-07-11T06:19:52.861Z,19808
2017-07-11T06:20:59.656Z,17516
2017-07-11T06:22:05.297Z,14064
2017-07-11T06:23:13.750Z,13352
2017-07-11T06:24:20.146Z,13916
2017-07-11T06:25:27.796Z,14028
2017-07-11T06:26:35.469Z,12136
2017-07-11T06:27:44.557Z,12760
2017-07-11T06:30:34.470Z,15296
2017-07-11T06:31:45.431Z,16084
2017-07-11T06:32:55.192Z,15068
2017-07-11T06:34:07.432Z,10816
2017-07-11T06:35:18.620Z,9252
2017-07-11T06:36:29.558Z,8664
2017-07-11T06:37:41.179Z,9912
2017-07-11T06:38:53.789Z,12508
2017-07-11T06:40:04.306Z,14992
2017-07-11T06:41:14.674Z,14432
2017-07-11T06:42:22.416Z,15636
2017-07-11T06:43:31.661Z,15112
2017-07-11T06:44:38.612Z,16016
2017-07-11T06:45:46.400Z,14012
2017-07-11T06:46:55.121Z,12680
2017-07-11T06:48:02.209Z,13016
2017-07-11T06:49:07.253Z,13300
2017-07-11T06:50:14.747Z,15096
2017-07-11T06:51:22.043Z,19616
2017-07-11T06:52:24.401Z,18656
2017-07-11T06:53:26.783Z,15072
2017-07-11T06:54:28.811Z,11016
2017-07-11T06:55:30.833Z,9872
2017-07-11T06:56:32.864Z,11264
2017-07-11T06:57:35.213Z,14272
2017-07-11T06:58:37.229Z,14684
2017-07-11T06:59:39.252Z,14556
2017-07-11T07:00:41.275Z,13396
2017-07-11T07:01:43.297Z,13088
2017-07-11T07:02:45.331Z,16272
2017-07-11T07:03:47.342Z,19328
2017-07-11T07:04:49.364Z,22688
2017-07-11T07:05:51.386Z,28192
2017-07-11T07:06:53.408Z,30528
2017-07-11T07:07:55.429Z,24512
2017-07-11T07:08:57.446Z,19296
2017-07-11T07:09:59.474Z,15556
2017-07-11T07:11:01.494Z,16032
2017-07-11T07:12:03.508Z,17600
2017-07-11T07:13:05.534Z,19296
2017-07-11T07:14:07.561Z,23808
2017-07-11T07:15:09.587Z,25056
2017-07-11T07:16:11.610Z,26912
2017-07-11T07:17:13.627Z,30336
2017-07-11T07:18:15.648Z,35328
2017-07-11T07:19:17.674Z,36352
2017-07-11T07:20:19.703Z,30272
2017-07-11T07:21:21.711Z,28640
2017-07-11T07:22:23.727Z,26944
2017-07-11T07:23:25.757Z,27296
2017-07-11T07:24:27.779Z,25856
2017-07-11T07:25:29.801Z,22784
2017-07-11T07:26:31.818Z,20736
2017-07-11T07:27:33.842Z,17440
2017-07-11T07:28:35.856Z,16512
2017-07-11T07:29:37.873Z,15108
2017-07-11T07:30:39.909Z,15104
2017-07-11T07:31:41.933Z,12080
2017-07-11T07:32:43.953Z,12484
2017-07-11T07:33:45.982Z,13092
2017-07-11T07:34:48.005Z,16548
2017-07-11T07:35:50.025Z,23520
2017-07-11T07:36:52.043Z,31840
2017-07-11T07:37:54.073Z,28832
2017-07-11T07:38:56.091Z,19328
2017-07-11T07:39:58.115Z,13232
2017-07-11T07:41:00.147Z,13348
2017-07-11T07:42:02.165Z,13204
2017-07-11T07:43:04.194Z,16140
2017-07-11T07:44:06.218Z,21056
2017-07-11T07:45:08.247Z,24032
2017-07-11T07:46:10.271Z,26176
2017-07-11T07:47:12.286Z,21920
2017-07-11T07:48:14.310Z,21440
2017-07-11T07:49:16.336Z,21408
2017-07-11T07:50:18.370Z,20128
2017-07-11T07:51:20.394Z,22112
2017-07-11T07:52:22.415Z,29088
2017-07-11T07:53:24.437Z,32256
2017-07-11T07:54:26.462Z,22944
2017-07-11T07:55:28.474Z,25472
2017-07-11T07:56:30.500Z,29120
2017-07-11T07:57:32.516Z,31648
2017-07-11T07:58:34.537Z,32544
2017-07-11T07:59:36.564Z,33952
2017-07-11T08:00:38.589Z,31040
2017-07-11T08:01:40.962Z,17840
2017-07-11T08:02:42.995Z,14832
2017-07-11T08:03:45.004Z,13356
2017-07-11T08:04:47.033Z,14032
2017-07-11T08:05:49.054Z,17276
2017-07-11T08:06:51.082Z,24128
2017-07-11T08:07:53.107Z,28544
2017-07-11T08:08:55.131Z,23808
2017-07-11T08:09:57.155Z,22016
2017-07-11T08:10:59.171Z,16936
2017-07-11T08:12:01.191Z,17584
2017-07-11T08:13:03.225Z,21152
2017-07-11T08:14:05.247Z,19872
2017-07-11T08:15:07.265Z,23808
2017-07-11T08:16:09.295Z,26784
2017-07-11T08:17:11.310Z,21216
2017-07-11T08:18:13.333Z,18388
2017-07-11T08:19:15.356Z,19840
2017-07-11T08:20:17.385Z,18428
2017-07-11T08:21:19.406Z,20544
2017-07-11T08:22:21.426Z,19520
2017-07-11T08:23:23.448Z,20736
2017-07-11T08:24:25.541Z,21248
2017-07-11T08:25:27.495Z,22208
2017-07-11T08:26:29.530Z,20256
2017-07-11T08:27:31.554Z,19904
2017-07-11T08:28:33.583Z,22624
2017-07-11T08:29:35.609Z,24128
2017-07-11T08:30:37.628Z,23168
2017-07-11T08:31:39.653Z,23040
2017-07-11T08:32:41.687Z,20160
2017-07-11T08:33:43.703Z,18300
2017-07-11T08:34:45.733Z,14908
2017-07-11T08:35:47.750Z,13660
2017-07-11T08:36:49.793Z,13116
2017-07-11T08:37:51.823Z,14944
2017-07-11T08:38:53.835Z,16008
2017-07-11T08:39:55.861Z,20000
2017-07-11T08:40:57.893Z,22720
2017-07-11T08:41:59.912Z,25088
2017-07-11T08:43:01.932Z,26656
2017-07-11T08:44:03.961Z,26368
2017-07-11T08:45:05.994Z,25184
2017-07-11T08:46:08.017Z,25216
2017-07-11T08:47:10.037Z,26272
2017-07-11T08:48:12.400Z,25568
2017-07-11T08:49:14.429Z,24096
2017-07-11T08:50:16.463Z,23872
2017-07-11T08:51:18.485Z,22080
2017-07-11T08:52:20.512Z,22176
2017-07-11T08:53:22.533Z,22912
2017-07-11T08:54:24.556Z,22240
2017-07-11T08:55:26.587Z,21920
2017-07-11T08:56:28.613Z,22848
2017-07-11T08:57:30.642Z,22016
2017-07-11T08:58:32.665Z,19808
2017-07-11T08:59:34.674Z,16160
2017-07-11T09:00:36.702Z,14448
2017-07-11T09:01:38.725Z,13748
2017-07-11T09:02:40.751Z,11704
2017-07-11T09:03:42.779Z,8892
2017-07-11T09:04:44.801Z,8052
2017-07-11T09:05:46.815Z,7260
2017-07-11T09:06:48.828Z,6620
2017-07-11T09:07:50.862Z,6884
2017-07-11T09:08:52.889Z,6228
2017-07-11T09:09:54.912Z,5684
2017-07-11T09:10:56.932Z,5988
2017-07-11T09:11:58.959Z,5444
2017-07-11T09:13:00.976Z,5820
2017-07-11T09:14:03.002Z,5764
2017-07-11T09:15:05.026Z,6312
2017-07-11T09:16:07.044Z,6056
2017-07-11T09:17:09.078Z,7384
2017-07-11T09:18:11.093Z,9516
2017-07-11T09:19:13.116Z,9756
2017-07-11T09:20:15.149Z,11332
2017-07-11T09:21:17.172Z,10936
2017-07-11T09:22:19.192Z,8656
2017-07-11T09:23:21.214Z,8156
2017-07-11T09:24:23.252Z,7988
2017-07-11T09:25:25.271Z,6904
2017-07-11T09:26:27.288Z,7288
2017-07-11T09:27:29.320Z,7852
2017-07-11T09:28:31.339Z,6780
2017-07-11T09:29:33.360Z,6748
2017-07-11T09:30:35.381Z,7452
2017-07-11T09:31:37.412Z,7492
2017-07-11T09:32:39.447Z,7420
2017-07-11T09:33:41.466Z,7660
2017-07-11T09:34:43.490Z,8396
2017-07-11T09:35:45.517Z,9024
2017-07-11T09:36:47.536Z,11140
2017-07-11T09:37:49.563Z,11740
2017-07-11T09:38:51.978Z,11584
2017-07-11T09:39:54.009Z,11668
2017-07-11T09:40:56.020Z,11296
2017-07-11T09:41:58.045Z,12348
2017-07-11T09:43:00.066Z,12400
2017-07-11T09:44:02.088Z,13904
2017-07-11T09:45:04.117Z,14192
2017-07-11T09:46:06.145Z,13856
2017-07-11T09:47:08.168Z,10240
2017-07-11T09:48:10.192Z,11428
2017-07-11T09:49:12.217Z,11232
2017-07-11T09:50:14.230Z,10828
2017-07-11T09:51:16.257Z,10752
2017-07-11T09:52:18.284Z,12672
2017-07-11T09:53:20.306Z,14964
2017-07-11T09:54:22.330Z,15052
2017-07-11T09:55:24.357Z,14440
2017-07-11T09:56:26.378Z,13972
2017-07-11T09:57:28.409Z,16388
2017-07-11T09:58:30.426Z,19520
2017-07-11T09:59:32.457Z,22656
2017-07-11T10:00:34.475Z,25120
2017-07-11T10:01:36.500Z,29344
2017-07-11T10:02:38.525Z,31040
2017-07-11T10:03:40.550Z,30400
2017-07-11T10:04:42.578Z,28448
2017-07-11T10:05:44.600Z,28256
2017-07-11T10:06:46.617Z,29216
2017-07-11T10:07:48.649Z,27552
2017-07-11T10:08:50.669Z,39552
2017-07-11T10:09:52.697Z,53728
2017-07-11T10:10:54.718Z,32576
2017-07-11T10:11:56.751Z,33600
2017-07-11T10:12:58.768Z,31968
2017-07-11T10:14:00.792Z,24960
2017-07-11T10:15:02.818Z,22944
2017-07-11T10:16:04.850Z,22208
2017-07-11T10:17:06.874Z,28096
2017-07-11T10:18:08.903Z,36320
2017-07-11T10:19:10.928Z,33120
2017-07-11T10:20:12.959Z,32864
2017-07-11T10:21:14.970Z,28192
2017-07-11T10:22:17.003Z,23776
2017-07-11T10:23:19.032Z,20608
2017-07-11T10:24:21.055Z,21408
2017-07-11T10:25:23.075Z,29920
2017-07-11T10:26:25.099Z,30944
2017-07-11T10:27:27.124Z,29344
2017-07-11T10:28:29.158Z,26112
2017-07-11T10:29:31.190Z,21632
2017-07-11T10:30:33.203Z,24512
2017-07-11T10:31:35.234Z,29536
2017-07-11T10:32:37.258Z,33920
2017-07-11T10:33:39.288Z,29120
2017-07-11T10:34:41.308Z,30880
2017-07-11T10:35:43.335Z,34080
2017-07-11T10:36:45.364Z,26272
2017-07-11T10:37:47.735Z,15948
2017-07-11T10:38:49.759Z,15168
2017-07-11T10:39:51.787Z,16172
2017-07-11T10:40:53.815Z,15400
2017-07-11T10:41:55.838Z,21216
2017-07-11T10:42:57.866Z,62208
2017-07-11T10:43:59.895Z,55104
2017-07-11T10:45:01.917Z,28096
2017-07-11T10:46:03.940Z,16552
2017-07-11T10:47:05.974Z,11872
2017-07-11T10:48:08.001Z,10204
2017-07-11T10:49:10.019Z,11224
2017-07-11T10:50:12.050Z,25280
2017-07-11T10:51:14.073Z,55360
2017-07-11T10:52:16.109Z,69440
2017-07-11T10:53:18.119Z,63424
2017-07-11T10:54:20.145Z,143712
2017-07-11T10:55:22.179Z,67424
2017-07-11T10:56:24.196Z,65472
2017-07-11T10:57:26.561Z,129472
2017-07-11T10:58:28.591Z,87680
2017-07-11T10:59:30.614Z,83936
2017-07-11T11:00:32.635Z,143328
2017-07-11T11:01:34.669Z,141120
2017-07-11T11:02:36.701Z,146848
2017-07-11T11:03:38.734Z,143648
2017-07-11T11:04:40.766Z,97952
2017-07-11T11:05:42.798Z,157056
2017-07-11T11:06:44.837Z,122176
2017-07-11T11:07:46.866Z,37984
2017-07-11T11:08:48.897Z,57216
2017-07-11T11:09:50.931Z,71520
2017-07-11T11:10:52.953Z,74080
2017-07-11T11:11:54.976Z,92960
2017-07-11T11:12:57.355Z,117984
2017-07-11T11:13:59.717Z,84480
2017-07-11T11:15:01.752Z,54592
2017-07-11T11:16:03.774Z,57024
2017-07-11T11:17:05.812Z,91712
2017-07-11T11:18:07.840Z,81440
2017-07-11T11:19:09.878Z,64928
2017-07-11T11:20:11.907Z,72832
2017-07-11T11:21:13.936Z,72480
2017-07-11T11:22:15.966Z,59072
2017-07-11T11:23:18.003Z,53888
2017-07-11T11:24:20.033Z,49952
2017-07-11T11:25:22.061Z,44128
2017-07-11T11:26:24.095Z,42848
2017-07-11T11:27:26.128Z,54848
2017-07-11T11:28:28.155Z,65472
2017-07-11T11:29:30.525Z,59904
2017-07-11T11:30:32.550Z,102176
2017-07-11T11:31:34.585Z,96352
2017-07-11T11:32:36.614Z,94304
2017-07-11T11:33:38.668Z,158144
2017-07-11T11:34:40.867Z,146240
2017-07-11T11:35:42.899Z,134176
2017-07-11T11:36:44.927Z,130656
2017-07-11T11:37:46.972Z,135968
2017-07-11T11:38:49.005Z,145536
2017-07-11T11:39:51.042Z,137152
2017-07-11T11:40:53.075Z,131072
2017-07-11T11:41:55.110Z,118016
2017-07-11T11:42:57.135Z,109024
2017-07-11T11:43:59.181Z,109920
2017-07-11T11:45:01.209Z,117664
2017-07-11T11:46:03.242Z,128960
2017-07-11T11:47:05.276Z,132096
2017-07-11T11:48:07.652Z,131520
2017-07-11T11:49:09.684Z,126688
2017-07-11T11:50:11.718Z,129408
2017-07-11T11:51:13.741Z,33248
2017-07-11T11:52:15.781Z,31360
2017-07-11T11:53:17.804Z,37280
2017-07-11T11:54:19.840Z,96448
2017-07-11T11:55:21.876Z,71808
2017-07-11T11:56:23.914Z,41344
2017-07-11T11:57:25.945Z,52896
2017-07-11T11:58:27.979Z,126592
2017-07-11T11:59:30.007Z,118848
2017-07-11T12:00:32.048Z,123392
2017-07-11T12:01:34.082Z,124896
2017-07-11T12:02:36.357Z,123776
2017-07-11T12:03:39.714Z,123584
2017-07-11T12:04:41.752Z,128832
2017-07-11T12:05:43.783Z,122208
2017-07-11T12:06:45.827Z,113536
2017-07-11T12:07:47.873Z,103904
2017-07-11T12:08:49.912Z,111488
2017-07-11T12:09:52.313Z,116000
2017-07-11T12:10:54.510Z,89824
2017-07-11T12:11:56.570Z,83968
2017-07-11T12:12:58.619Z,115360
2017-07-11T12:14:00.686Z,120864
2017-07-11T12:15:02.717Z,131616
2017-07-11T12:16:04.786Z,127104
2017-07-11T12:17:06.849Z,122816
2017-07-11T12:18:09.561Z,124832
2017-07-11T12:19:11.615Z,125056
2017-07-11T12:20:13.654Z,123200
2017-07-11T12:21:15.688Z,129120
2017-07-11T12:22:17.720Z,140128
2017-07-11T12:23:19.760Z,142112
2017-07-11T12:24:21.805Z,109472
2017-07-11T12:25:23.848Z,38976
2017-07-11T12:26:25.873Z,34880
2017-07-11T12:27:27.908Z,45984
2017-07-11T12:28:29.957Z,123040
2017-07-11T12:29:31.991Z,112896
2017-07-11T12:30:34.026Z,20768
2017-07-11T12:31:36.120Z,17660
2017-07-11T12:32:38.118Z,17528
2017-07-11T12:33:40.153Z,15408
2017-07-11T12:34:42.185Z,15660
2017-07-11T12:35:44.223Z,16796
2017-07-11T12:36:46.266Z,19392
2017-07-11T12:37:48.297Z,23360
2017-07-11T12:38:50.334Z,36832
2017-07-11T12:39:52.383Z,76928
2017-07-11T12:40:54.407Z,89088
2017-07-11T12:41:56.439Z,48512
2017-07-11T12:42:58.477Z,120352
2017-07-11T12:44:00.512Z,103200
2017-07-11T12:45:02.539Z,98368
2017-07-11T12:46:04.582Z,81152
2017-07-11T12:47:06.618Z,68000
2017-07-11T12:48:08.654Z,89728
2017-07-11T12:49:10.693Z,103008
2017-07-11T12:50:12.728Z,109664
2017-07-11T12:51:14.771Z,52864
2017-07-11T12:52:16.807Z,107424
2017-07-11T12:53:18.842Z,99360
2017-07-11T12:54:20.882Z,74304
2017-07-11T12:55:22.917Z,28064
2017-07-11T12:56:24.949Z,21376
2017-07-11T12:57:26.993Z,18944
2017-07-11T12:58:29.040Z,22144
2017-07-11T12:59:31.067Z,58528
2017-07-11T13:00:33.106Z,62976
2017-07-11T13:01:35.151Z,66720
2017-07-11T13:02:37.184Z,42976
2017-07-11T13:03:39.556Z,37056
2017-07-11T13:04:41.591Z,28064
2017-07-11T13:05:43.620Z,23520
2017-07-11T13:06:45.666Z,21344
2017-07-11T13:07:47.695Z,21856
2017-07-11T13:08:49.748Z,20416
2017-07-11T13:09:51.777Z,19616
2017-07-11T13:10:53.823Z,18140
2017-07-11T13:11:55.874Z,17048
2017-07-11T13:12:57.908Z,16428
2017-07-11T13:13:59.946Z,16564
2017-07-11T13:15:02.000Z,17364
2017-07-11T13:16:04.027Z,18976
2017-07-11T13:17:06.076Z,21344
2017-07-11T13:18:08.094Z,24064
2017-07-11T13:19:10.141Z,26240
2017-07-11T13:20:12.171Z,26400
2017-07-11T13:21:14.219Z,25344
2017-07-11T13:22:16.236Z,24032
2017-07-11T13:23:18.274Z,22464
2017-07-11T13:24:20.638Z,20320
2017-07-11T13:25:22.687Z,18280
2017-07-11T13:26:24.708Z,15988
2017-07-11T13:27:26.745Z,14056
2017-07-11T13:28:28.779Z,13008
2017-07-11T13:29:30.812Z,12948
2017-07-11T13:30:32.861Z,13172
2017-07-11T13:31:35.232Z,13420
2017-07-11T13:32:37.263Z,13220
2017-07-11T13:33:39.301Z,12340
2017-07-11T13:34:41.334Z,10840
2017-07-11T13:35:43.372Z,9216
2017-07-11T13:36:45.407Z,7860
2017-07-11T13:37:47.445Z,6800
2017-07-11T13:38:49.476Z,6024
2017-07-11T13:39:51.497Z,5496
2017-07-11T13:40:53.528Z,5132
2017-07-11T13:41:55.566Z,4716
2017-07-11T13:42:57.608Z,4404
2017-07-11T13:43:59.629Z,4532
2017-07-11T13:45:01.665Z,4612
2017-07-11T13:46:03.693Z,4660
2017-07-11T13:47:05.715Z,4724
2017-07-11T13:48:07.742Z,4744
2017-07-11T13:49:09.786Z,4972
2017-07-11T13:50:11.820Z,5204
2017-07-11T13:51:13.859Z,5012
2017-07-11T13:52:15.886Z,4724
2017-07-11T13:53:17.914Z,5368
2017-07-11T13:54:19.941Z,6092
2017-07-11T13:55:21.969Z,8880
2017-07-11T13:56:24.001Z,11332